sensor_id;sensor_type;location;lat;lon;timestamp;P1;durP1;ratioP1;P2;durP2;ratioP2
42036;SDS011;30340;52.004;5.908;2022-11-20T00:01:46;9.73;;;6.53;;
42036;SDS011;30340;52.004;5.908;2022-11-20T00:04:12;11.50;;;8.02;;
42036;SDS011;30340;52.004;5.908;2022-11-20T00:06:37;11.57;;;7.97;;
42036;SDS011;30340;52.004;5.908;2022-11-20T00:09:03;9.20;;;6.90;;
42036;SDS011;30340;52.004;5.908;2022-11-20T00:11:30;9.35;;;6.57;;
42036;SDS011;30340;52.004;5.908;2022-11-20T00:13:57;9.77;;;7.40;;
42036;SDS011;30340;52.004;5.908;2022-11-20T00:16:25;10.30;;;7.35;;
42036;SDS011;30340;52.004;5.908;2022-11-20T00:18:52;8.50;;;6.07;;
42036;SDS011;30340;52.004;5.908;2022-11-20T00:21:19;8.63;;;6.05;;
42036;SDS011;30340;52.004;5.908;2022-11-20T00:23:45;9.95;;;7.40;;
42036;SDS011;30340;52.004;5.908;2022-11-20T00:26:12;9.02;;;6.63;;
42036;SDS011;30340;52.004;5.908;2022-11-20T00:28:40;9.43;;;6.63;;
42036;SDS011;30340;52.004;5.908;2022-11-20T00:31:07;9.07;;;6.22;;
42036;SDS011;30340;52.004;5.908;2022-11-20T00:33:38;14.98;;;9.43;;
42036;SDS011;30340;52.004;5.908;2022-11-20T00:36:08;14.43;;;8.93;;
42036;SDS011;30340;52.004;5.908;2022-11-20T00:38:45;11.77;;;8.45;;
42036;SDS011;30340;52.004;5.908;2022-11-20T00:41:12;10.40;;;7.28;;
42036;SDS011;30340;52.004;5.908;2022-11-20T00:43:39;11.45;;;7.63;;
42036;SDS011;30340;52.004;5.908;2022-11-20T00:46:09;11.63;;;7.65;;
42036;SDS011;30340;52.004;5.908;2022-11-20T00:48:38;9.00;;;6.45;;
42036;SDS011;30340;52.004;5.908;2022-11-20T00:51:04;10.52;;;7.15;;
42036;SDS011;30340;52.004;5.908;2022-11-20T00:53:29;8.68;;;6.25;;
42036;SDS011;30340;52.004;5.908;2022-11-20T00:55:59;10.25;;;7.40;;
42036;SDS011;30340;52.004;5.908;2022-11-20T00:58:30;10.50;;;7.40;;
42036;SDS011;30340;52.004;5.908;2022-11-20T01:01:02;10.48;;;7.60;;
42036;SDS011;30340;52.004;5.908;2022-11-20T01:03:31;9.90;;;6.93;;
42036;SDS011;30340;52.004;5.908;2022-11-20T01:06:01;9.20;;;6.72;;
42036;SDS011;30340;52.004;5.908;2022-11-20T01:08:34;9.95;;;7.35;;
42036;SDS011;30340;52.004;5.908;2022-11-20T01:11:01;9.77;;;7.53;;
42036;SDS011;30340;52.004;5.908;2022-11-20T01:13:29;8.88;;;6.50;;
42036;SDS011;30340;52.004;5.908;2022-11-20T01:16:09;10.18;;;7.00;;
42036;SDS011;30340;52.004;5.908;2022-11-20T01:18:38;9.07;;;6.53;;
42036;SDS011;30340;52.004;5.908;2022-11-20T01:21:05;9.55;;;6.72;;
42036;SDS011;30340;52.004;5.908;2022-11-20T01:23:33;8.68;;;6.32;;
42036;SDS011;30340;52.004;5.908;2022-11-20T01:26:04;11.32;;;7.88;;
42036;SDS011;30340;52.004;5.908;2022-11-20T01:28:31;10.40;;;6.82;;
42036;SDS011;30340;52.004;5.908;2022-11-20T01:30:57;8.75;;;6.25;;
42036;SDS011;30340;52.004;5.908;2022-11-20T01:33:23;9.98;;;7.32;;
42036;SDS011;30340;52.004;5.908;2022-11-20T01:35:49;9.75;;;7.35;;
42036;SDS011;30340;52.004;5.908;2022-11-20T01:38:15;9.30;;;6.68;;
42036;SDS011;30340;52.004;5.908;2022-11-20T01:40:41;10.18;;;7.55;;
42036;SDS011;30340;52.004;5.908;2022-11-20T01:43:17;9.32;;;6.95;;
42036;SDS011;30340;52.004;5.908;2022-11-20T01:48:29;9.90;;;7.47;;
42036;SDS011;30340;52.004;5.908;2022-11-20T01:50:59;9.23;;;6.35;;
42036;SDS011;30340;52.004;5.908;2022-11-20T01:53:28;10.02;;;7.28;;
42036;SDS011;30340;52.004;5.908;2022-11-20T01:55:57;10.32;;;7.43;;
42036;SDS011;30340;52.004;5.908;2022-11-20T01:58:27;9.32;;;6.57;;
42036;SDS011;30340;52.004;5.908;2022-11-20T02:00:57;9.52;;;6.63;;
42036;SDS011;30340;52.004;5.908;2022-11-20T02:03:22;10.70;;;7.63;;
42036;SDS011;30340;52.004;5.908;2022-11-20T02:06:11;10.30;;;7.30;;
42036;SDS011;30340;52.004;5.908;2022-11-20T02:08:37;9.02;;;6.45;;
42036;SDS011;30340;52.004;5.908;2022-11-20T02:11:03;8.23;;;5.90;;
42036;SDS011;30340;52.004;5.908;2022-11-20T02:13:29;8.68;;;5.90;;
42036;SDS011;30340;52.004;5.908;2022-11-20T02:16:14;10.25;;;7.25;;
42036;SDS011;30340;52.004;5.908;2022-11-20T02:18:42;10.10;;;7.32;;
42036;SDS011;30340;52.004;5.908;2022-11-20T02:21:13;8.85;;;5.97;;
42036;SDS011;30340;52.004;5.908;2022-11-20T02:23:53;10.63;;;7.68;;
42036;SDS011;30340;52.004;5.908;2022-11-20T02:26:18;9.68;;;6.88;;
42036;SDS011;30340;52.004;5.908;2022-11-20T02:28:46;9.35;;;6.18;;
42036;SDS011;30340;52.004;5.908;2022-11-20T02:31:12;9.77;;;6.80;;
42036;SDS011;30340;52.004;5.908;2022-11-20T02:33:38;10.93;;;7.75;;
42036;SDS011;30340;52.004;5.908;2022-11-20T02:36:03;12.82;;;8.63;;
42036;SDS011;30340;52.004;5.908;2022-11-20T02:38:29;12.50;;;7.78;;
42036;SDS011;30340;52.004;5.908;2022-11-20T02:40:55;10.38;;;7.10;;
42036;SDS011;30340;52.004;5.908;2022-11-20T02:43:20;9.38;;;6.72;;
42036;SDS011;30340;52.004;5.908;2022-11-20T02:45:46;11.07;;;7.45;;
42036;SDS011;30340;52.004;5.908;2022-11-20T02:48:12;10.35;;;7.88;;
42036;SDS011;30340;52.004;5.908;2022-11-20T02:50:38;11.80;;;8.25;;
42036;SDS011;30340;52.004;5.908;2022-11-20T02:53:04;9.10;;;6.75;;
42036;SDS011;30340;52.004;5.908;2022-11-20T02:55:30;9.30;;;6.75;;
42036;SDS011;30340;52.004;5.908;2022-11-20T02:57:56;11.65;;;8.07;;
42036;SDS011;30340;52.004;5.908;2022-11-20T03:00:22;10.93;;;7.38;;
42036;SDS011;30340;52.004;5.908;2022-11-20T03:02:47;10.27;;;7.18;;
42036;SDS011;30340;52.004;5.908;2022-11-20T03:05:13;10.93;;;7.30;;
42036;SDS011;30340;52.004;5.908;2022-11-20T03:07:38;10.05;;;7.75;;
42036;SDS011;30340;52.004;5.908;2022-11-20T03:10:04;9.77;;;7.20;;
42036;SDS011;30340;52.004;5.908;2022-11-20T03:12:30;11.18;;;7.75;;
42036;SDS011;30340;52.004;5.908;2022-11-20T03:14:55;11.55;;;7.60;;
42036;SDS011;30340;52.004;5.908;2022-11-20T03:17:21;10.85;;;7.75;;
42036;SDS011;30340;52.004;5.908;2022-11-20T03:19:46;9.85;;;7.15;;
42036;SDS011;30340;52.004;5.908;2022-11-20T03:22:12;11.07;;;7.50;;
42036;SDS011;30340;52.004;5.908;2022-11-20T03:24:38;9.40;;;7.05;;
42036;SDS011;30340;52.004;5.908;2022-11-20T03:27:03;10.65;;;7.88;;
42036;SDS011;30340;52.004;5.908;2022-11-20T03:29:29;10.18;;;7.07;;
42036;SDS011;30340;52.004;5.908;2022-11-20T03:31:54;10.45;;;7.38;;
42036;SDS011;30340;52.004;5.908;2022-11-20T03:34:20;11.18;;;8.50;;
42036;SDS011;30340;52.004;5.908;2022-11-20T03:36:46;11.48;;;7.72;;
42036;SDS011;30340;52.004;5.908;2022-11-20T03:39:11;9.95;;;7.50;;
42036;SDS011;30340;52.004;5.908;2022-11-20T03:41:37;12.68;;;8.98;;
42036;SDS011;30340;52.004;5.908;2022-11-20T03:44:05;12.07;;;8.40;;
42036;SDS011;30340;52.004;5.908;2022-11-20T03:46:32;11.23;;;7.53;;
42036;SDS011;30340;52.004;5.908;2022-11-20T03:48:58;10.23;;;7.70;;
42036;SDS011;30340;52.004;5.908;2022-11-20T03:51:25;12.60;;;8.77;;
42036;SDS011;30340;52.004;5.908;2022-11-20T03:53:52;9.90;;;7.15;;
42036;SDS011;30340;52.004;5.908;2022-11-20T03:56:23;10.98;;;8.07;;
42036;SDS011;30340;52.004;5.908;2022-11-20T03:58:49;21.10;;;12.68;;
42036;SDS011;30340;52.004;5.908;2022-11-20T04:01:16;15.95;;;10.90;;
42036;SDS011;30340;52.004;5.908;2022-11-20T04:03:44;16.27;;;10.13;;
42036;SDS011;30340;52.004;5.908;2022-11-20T04:06:19;13.38;;;8.20;;
42036;SDS011;30340;52.004;5.908;2022-11-20T04:08:46;13.15;;;9.27;;
42036;SDS011;30340;52.004;5.908;2022-11-20T04:11:13;13.48;;;9.80;;
42036;SDS011;30340;52.004;5.908;2022-11-20T04:13:40;12.98;;;9.10;;
42036;SDS011;30340;52.004;5.908;2022-11-20T04:16:07;10.57;;;7.68;;
42036;SDS011;30340;52.004;5.908;2022-11-20T04:18:34;11.02;;;8.05;;
42036;SDS011;30340;52.004;5.908;2022-11-20T04:21:00;10.50;;;7.85;;
42036;SDS011;30340;52.004;5.908;2022-11-20T04:23:26;11.00;;;8.07;;
42036;SDS011;30340;52.004;5.908;2022-11-20T04:25:52;10.82;;;7.90;;
42036;SDS011;30340;52.004;5.908;2022-11-20T04:28:18;10.15;;;6.95;;
42036;SDS011;30340;52.004;5.908;2022-11-20T04:30:44;11.15;;;7.78;;
42036;SDS011;30340;52.004;5.908;2022-11-20T04:33:09;10.90;;;7.65;;
42036;SDS011;30340;52.004;5.908;2022-11-20T04:35:35;11.45;;;7.63;;
42036;SDS011;30340;52.004;5.908;2022-11-20T04:38:02;10.80;;;7.40;;
42036;SDS011;30340;52.004;5.908;2022-11-20T04:40:27;13.75;;;9.18;;
42036;SDS011;30340;52.004;5.908;2022-11-20T04:42:54;11.93;;;8.27;;
42036;SDS011;30340;52.004;5.908;2022-11-20T04:45:20;11.23;;;7.90;;
42036;SDS011;30340;52.004;5.908;2022-11-20T04:47:46;11.68;;;7.82;;
42036;SDS011;30340;52.004;5.908;2022-11-20T04:50:12;12.70;;;8.93;;
42036;SDS011;30340;52.004;5.908;2022-11-20T04:52:37;12.93;;;9.20;;
42036;SDS011;30340;52.004;5.908;2022-11-20T04:55:03;11.32;;;7.47;;
42036;SDS011;30340;52.004;5.908;2022-11-20T04:57:28;10.45;;;7.60;;
42036;SDS011;30340;52.004;5.908;2022-11-20T04:59:54;12.25;;;8.98;;
42036;SDS011;30340;52.004;5.908;2022-11-20T05:02:20;12.40;;;8.07;;
42036;SDS011;30340;52.004;5.908;2022-11-20T05:04:45;12.05;;;8.80;;
42036;SDS011;30340;52.004;5.908;2022-11-20T05:07:11;12.32;;;8.85;;
42036;SDS011;30340;52.004;5.908;2022-11-20T05:09:36;12.25;;;8.45;;
42036;SDS011;30340;52.004;5.908;2022-11-20T05:12:02;10.77;;;7.50;;
42036;SDS011;30340;52.004;5.908;2022-11-20T05:14:28;12.55;;;8.43;;
42036;SDS011;30340;52.004;5.908;2022-11-20T05:16:53;12.07;;;9.02;;
42036;SDS011;30340;52.004;5.908;2022-11-20T05:19:19;12.27;;;8.32;;
42036;SDS011;30340;52.004;5.908;2022-11-20T05:21:44;11.23;;;7.78;;
42036;SDS011;30340;52.004;5.908;2022-11-20T05:24:10;12.15;;;8.20;;
42036;SDS011;30340;52.004;5.908;2022-11-20T05:26:36;13.63;;;9.10;;
42036;SDS011;30340;52.004;5.908;2022-11-20T05:29:01;12.07;;;7.65;;
42036;SDS011;30340;52.004;5.908;2022-11-20T05:31:27;10.43;;;7.65;;
42036;SDS011;30340;52.004;5.908;2022-11-20T05:33:52;12.68;;;8.00;;
42036;SDS011;30340;52.004;5.908;2022-11-20T05:36:18;12.48;;;8.57;;
42036;SDS011;30340;52.004;5.908;2022-11-20T05:38:44;11.80;;;8.27;;
42036;SDS011;30340;52.004;5.908;2022-11-20T05:41:14;13.60;;;9.10;;
42036;SDS011;30340;52.004;5.908;2022-11-20T05:43:41;13.13;;;8.40;;
42036;SDS011;30340;52.004;5.908;2022-11-20T05:46:08;11.88;;;8.40;;
42036;SDS011;30340;52.004;5.908;2022-11-20T05:48:36;15.20;;;9.52;;
42036;SDS011;30340;52.004;5.908;2022-11-20T05:51:03;13.32;;;9.02;;
42036;SDS011;30340;52.004;5.908;2022-11-20T05:53:31;14.77;;;9.90;;
42036;SDS011;30340;52.004;5.908;2022-11-20T05:55:58;13.32;;;9.40;;
42036;SDS011;30340;52.004;5.908;2022-11-20T05:58:30;16.58;;;11.23;;
42036;SDS011;30340;52.004;5.908;2022-11-20T06:01:03;13.02;;;9.07;;
42036;SDS011;30340;52.004;5.908;2022-11-20T06:03:29;14.40;;;9.40;;
42036;SDS011;30340;52.004;5.908;2022-11-20T06:05:54;14.70;;;10.20;;
42036;SDS011;30340;52.004;5.908;2022-11-20T06:08:20;15.10;;;10.02;;
42036;SDS011;30340;52.004;5.908;2022-11-20T06:10:45;15.13;;;10.40;;
42036;SDS011;30340;52.004;5.908;2022-11-20T06:13:11;16.27;;;10.63;;
42036;SDS011;30340;52.004;5.908;2022-11-20T06:15:36;13.43;;;8.45;;
42036;SDS011;30340;52.004;5.908;2022-11-20T06:18:02;14.43;;;9.38;;
42036;SDS011;30340;52.004;5.908;2022-11-20T06:20:27;14.40;;;9.23;;
42036;SDS011;30340;52.004;5.908;2022-11-20T06:22:53;13.60;;;9.25;;
42036;SDS011;30340;52.004;5.908;2022-11-20T06:25:18;18.00;;;11.98;;
42036;SDS011;30340;52.004;5.908;2022-11-20T06:27:44;17.40;;;11.25;;
42036;SDS011;30340;52.004;5.908;2022-11-20T06:30:09;15.00;;;10.93;;
42036;SDS011;30340;52.004;5.908;2022-11-20T06:32:35;14.63;;;10.90;;
42036;SDS011;30340;52.004;5.908;2022-11-20T06:35:01;15.05;;;10.43;;
42036;SDS011;30340;52.004;5.908;2022-11-20T06:37:27;16.10;;;11.20;;
42036;SDS011;30340;52.004;5.908;2022-11-20T06:39:52;17.10;;;11.48;;
42036;SDS011;30340;52.004;5.908;2022-11-20T06:42:18;13.68;;;9.65;;
42036;SDS011;30340;52.004;5.908;2022-11-20T06:44:43;14.27;;;9.45;;
42036;SDS011;30340;52.004;5.908;2022-11-20T06:47:09;17.50;;;11.60;;
42036;SDS011;30340;52.004;5.908;2022-11-20T06:49:34;13.40;;;9.25;;
42036;SDS011;30340;52.004;5.908;2022-11-20T06:52:01;18.35;;;11.68;;
42036;SDS011;30340;52.004;5.908;2022-11-20T06:54:27;15.63;;;10.75;;
42036;SDS011;30340;52.004;5.908;2022-11-20T06:56:53;14.55;;;9.52;;
42036;SDS011;30340;52.004;5.908;2022-11-20T06:59:18;17.60;;;11.55;;
42036;SDS011;30340;52.004;5.908;2022-11-20T07:01:44;17.17;;;11.20;;
42036;SDS011;30340;52.004;5.908;2022-11-20T07:04:09;14.73;;;10.02;;
42036;SDS011;30340;52.004;5.908;2022-11-20T07:06:35;18.33;;;12.10;;
42036;SDS011;30340;52.004;5.908;2022-11-20T07:09:01;18.30;;;12.35;;
42036;SDS011;30340;52.004;5.908;2022-11-20T07:11:26;16.88;;;11.10;;
42036;SDS011;30340;52.004;5.908;2022-11-20T07:13:52;16.60;;;10.65;;
42036;SDS011;30340;52.004;5.908;2022-11-20T07:16:18;16.48;;;10.15;;
42036;SDS011;30340;52.004;5.908;2022-11-20T07:18:43;15.90;;;10.65;;
42036;SDS011;30340;52.004;5.908;2022-11-20T07:21:10;17.77;;;12.65;;
42036;SDS011;30340;52.004;5.908;2022-11-20T07:23:35;17.70;;;12.15;;
42036;SDS011;30340;52.004;5.908;2022-11-20T07:26:04;18.33;;;12.48;;
42036;SDS011;30340;52.004;5.908;2022-11-20T07:28:35;15.68;;;10.23;;
42036;SDS011;30340;52.004;5.908;2022-11-20T07:31:01;17.80;;;11.88;;
42036;SDS011;30340;52.004;5.908;2022-11-20T07:33:27;15.57;;;10.50;;
42036;SDS011;30340;52.004;5.908;2022-11-20T07:35:53;15.05;;;9.75;;
42036;SDS011;30340;52.004;5.908;2022-11-20T07:38:19;12.88;;;9.05;;
42036;SDS011;30340;52.004;5.908;2022-11-20T07:40:44;18.58;;;11.35;;
42036;SDS011;30340;52.004;5.908;2022-11-20T07:43:10;16.85;;;11.00;;
42036;SDS011;30340;52.004;5.908;2022-11-20T07:45:35;15.57;;;11.30;;
42036;SDS011;30340;52.004;5.908;2022-11-20T07:48:01;17.23;;;11.55;;
42036;SDS011;30340;52.004;5.908;2022-11-20T07:50:26;16.00;;;10.73;;
42036;SDS011;30340;52.004;5.908;2022-11-20T07:52:52;17.35;;;11.77;;
42036;SDS011;30340;52.004;5.908;2022-11-20T07:55:25;15.35;;;10.52;;
42036;SDS011;30340;52.004;5.908;2022-11-20T07:57:55;15.75;;;10.98;;
42036;SDS011;30340;52.004;5.908;2022-11-20T08:00:21;20.88;;;12.23;;
42036;SDS011;30340;52.004;5.908;2022-11-20T08:02:47;26.33;;;15.25;;
42036;SDS011;30340;52.004;5.908;2022-11-20T08:05:13;21.23;;;12.88;;
42036;SDS011;30340;52.004;5.908;2022-11-20T08:07:39;20.20;;;11.68;;
42036;SDS011;30340;52.004;5.908;2022-11-20T08:10:06;17.90;;;11.40;;
42036;SDS011;30340;52.004;5.908;2022-11-20T08:12:33;17.02;;;11.50;;
42036;SDS011;30340;52.004;5.908;2022-11-20T08:15:17;19.90;;;12.88;;
42036;SDS011;30340;52.004;5.908;2022-11-20T08:17:43;15.88;;;11.00;;
42036;SDS011;30340;52.004;5.908;2022-11-20T08:20:09;15.20;;;10.38;;
42036;SDS011;30340;52.004;5.908;2022-11-20T08:22:34;19.73;;;13.68;;
42036;SDS011;30340;52.004;5.908;2022-11-20T08:25:00;20.73;;;14.27;;
42036;SDS011;30340;52.004;5.908;2022-11-20T08:27:26;16.90;;;12.43;;
42036;SDS011;30340;52.004;5.908;2022-11-20T08:29:52;17.85;;;12.75;;
42036;SDS011;30340;52.004;5.908;2022-11-20T08:32:17;16.83;;;12.35;;
42036;SDS011;30340;52.004;5.908;2022-11-20T08:34:43;16.65;;;11.25;;
42036;SDS011;30340;52.004;5.908;2022-11-20T08:37:08;15.68;;;11.13;;
42036;SDS011;30340;52.004;5.908;2022-11-20T08:39:34;19.13;;;13.20;;
42036;SDS011;30340;52.004;5.908;2022-11-20T08:41:59;19.10;;;13.20;;
42036;SDS011;30340;52.004;5.908;2022-11-20T08:44:25;19.02;;;12.60;;
42036;SDS011;30340;52.004;5.908;2022-11-20T08:46:50;21.50;;;14.05;;
42036;SDS011;30340;52.004;5.908;2022-11-20T08:49:16;25.85;;;16.88;;
42036;SDS011;30340;52.004;5.908;2022-11-20T08:51:42;23.30;;;15.23;;
42036;SDS011;30340;52.004;5.908;2022-11-20T08:54:08;22.42;;;14.77;;
42036;SDS011;30340;52.004;5.908;2022-11-20T08:56:34;24.85;;;15.82;;
42036;SDS011;30340;52.004;5.908;2022-11-20T08:59:00;22.23;;;14.35;;
42036;SDS011;30340;52.004;5.908;2022-11-20T09:01:26;21.17;;;13.38;;
42036;SDS011;30340;52.004;5.908;2022-11-20T09:03:54;23.45;;;14.77;;
42036;SDS011;30340;52.004;5.908;2022-11-20T09:06:21;24.67;;;15.82;;
42036;SDS011;30340;52.004;5.908;2022-11-20T09:08:46;27.70;;;18.63;;
42036;SDS011;30340;52.004;5.908;2022-11-20T09:11:12;26.27;;;17.40;;
42036;SDS011;30340;52.004;5.908;2022-11-20T09:13:37;23.27;;;15.23;;
42036;SDS011;30340;52.004;5.908;2022-11-20T09:16:04;20.88;;;13.93;;
42036;SDS011;30340;52.004;5.908;2022-11-20T09:18:32;19.20;;;13.05;;
42036;SDS011;30340;52.004;5.908;2022-11-20T09:20:59;24.45;;;16.38;;
42036;SDS011;30340;52.004;5.908;2022-11-20T09:23:25;26.52;;;16.25;;
42036;SDS011;30340;52.004;5.908;2022-11-20T09:25:52;26.30;;;16.48;;
42036;SDS011;30340;52.004;5.908;2022-11-20T09:28:20;21.33;;;15.30;;
42036;SDS011;30340;52.004;5.908;2022-11-20T09:30:45;26.30;;;17.95;;
42036;SDS011;30340;52.004;5.908;2022-11-20T09:33:11;18.85;;;12.48;;
42036;SDS011;30340;52.004;5.908;2022-11-20T09:35:37;21.05;;;13.88;;
42036;SDS011;30340;52.004;5.908;2022-11-20T09:38:06;26.73;;;18.38;;
42036;SDS011;30340;52.004;5.908;2022-11-20T09:40:32;21.17;;;14.23;;
42036;SDS011;30340;52.004;5.908;2022-11-20T09:48:55;22.05;;;15.30;;
42036;SDS011;30340;52.004;5.908;2022-11-20T09:54:37;19.88;;;13.23;;
42036;SDS011;30340;52.004;5.908;2022-11-20T09:57:08;20.38;;;13.52;;
42036;SDS011;30340;52.004;5.908;2022-11-20T09:59:43;22.08;;;14.95;;
42036;SDS011;30340;52.004;5.908;2022-11-20T10:05:06;21.45;;;15.02;;
42036;SDS011;30340;52.004;5.908;2022-11-20T10:07:53;19.48;;;13.77;;
42036;SDS011;30340;52.004;5.908;2022-11-20T10:15:54;22.80;;;15.00;;
42036;SDS011;30340;52.004;5.908;2022-11-20T10:27:03;20.73;;;13.80;;
42036;SDS011;30340;52.004;5.908;2022-11-20T10:29:41;21.08;;;14.15;;
42036;SDS011;30340;52.004;5.908;2022-11-20T10:32:14;20.52;;;13.60;;
42036;SDS011;30340;52.004;5.908;2022-11-20T10:37:24;23.48;;;16.05;;
42036;SDS011;30340;52.004;5.908;2022-11-20T10:42:41;23.40;;;16.40;;
42036;SDS011;30340;52.004;5.908;2022-11-20T10:45:13;19.83;;;14.02;;
42036;SDS011;30340;52.004;5.908;2022-11-20T10:47:46;22.17;;;14.40;;
42036;SDS011;30340;52.004;5.908;2022-11-20T10:50:14;21.48;;;14.20;;
42036;SDS011;30340;52.004;5.908;2022-11-20T10:58:45;18.98;;;12.70;;
42036;SDS011;30340;52.004;5.908;2022-11-20T11:01:16;19.83;;;13.13;;
42036;SDS011;30340;52.004;5.908;2022-11-20T11:03:43;20.77;;;12.80;;
42036;SDS011;30340;52.004;5.908;2022-11-20T11:06:24;21.85;;;14.60;;
42036;SDS011;30340;52.004;5.908;2022-11-20T11:08:58;23.92;;;14.98;;
42036;SDS011;30340;52.004;5.908;2022-11-20T11:11:31;24.58;;;16.02;;
42036;SDS011;30340;52.004;5.908;2022-11-20T11:14:05;24.15;;;16.80;;
42036;SDS011;30340;52.004;5.908;2022-11-20T11:16:31;23.55;;;15.65;;
42036;SDS011;30340;52.004;5.908;2022-11-20T11:19:04;23.38;;;14.07;;
42036;SDS011;30340;52.004;5.908;2022-11-20T11:21:37;20.92;;;13.85;;
42036;SDS011;30340;52.004;5.908;2022-11-20T11:24:14;20.75;;;14.05;;
42036;SDS011;30340;52.004;5.908;2022-11-20T11:26:59;25.17;;;15.70;;
42036;SDS011;30340;52.004;5.908;2022-11-20T11:29:29;23.85;;;15.60;;
42036;SDS011;30340;52.004;5.908;2022-11-20T11:32:10;19.90;;;13.73;;
42036;SDS011;30340;52.004;5.908;2022-11-20T11:34:38;24.55;;;16.80;;
42036;SDS011;30340;52.004;5.908;2022-11-20T11:37:04;24.88;;;16.50;;
42036;SDS011;30340;52.004;5.908;2022-11-20T11:39:37;24.10;;;16.15;;
42036;SDS011;30340;52.004;5.908;2022-11-20T11:42:07;21.67;;;14.35;;
42036;SDS011;30340;52.004;5.908;2022-11-20T11:44:43;21.33;;;14.20;;
42036;SDS011;30340;52.004;5.908;2022-11-20T11:47:32;25.17;;;17.60;;
42036;SDS011;30340;52.004;5.908;2022-11-20T11:50:13;24.55;;;16.88;;
42036;SDS011;30340;52.004;5.908;2022-11-20T11:55:15;24.10;;;16.83;;
42036;SDS011;30340;52.004;5.908;2022-11-20T11:57:58;26.40;;;18.70;;
42036;SDS011;30340;52.004;5.908;2022-11-20T12:00:54;24.83;;;16.08;;
42036;SDS011;30340;52.004;5.908;2022-11-20T12:03:44;26.25;;;17.20;;
42036;SDS011;30340;52.004;5.908;2022-11-20T12:06:39;24.60;;;17.08;;
42036;SDS011;30340;52.004;5.908;2022-11-20T12:09:08;24.23;;;16.63;;
42036;SDS011;30340;52.004;5.908;2022-11-20T12:16:44;31.13;;;20.83;;
42036;SDS011;30340;52.004;5.908;2022-11-20T12:19:11;22.40;;;16.52;;
42036;SDS011;30340;52.004;5.908;2022-11-20T12:27:16;28.33;;;20.13;;
42036;SDS011;30340;52.004;5.908;2022-11-20T12:30:11;25.05;;;17.05;;
42036;SDS011;30340;52.004;5.908;2022-11-20T12:56:14;24.58;;;17.60;;
42036;SDS011;30340;52.004;5.908;2022-11-20T13:04:08;24.25;;;17.52;;
42036;SDS011;30340;52.004;5.908;2022-11-20T13:06:43;26.17;;;18.80;;
42036;SDS011;30340;52.004;5.908;2022-11-20T13:09:11;30.27;;;19.52;;
42036;SDS011;30340;52.004;5.908;2022-11-20T13:19:37;22.48;;;16.83;;
42036;SDS011;30340;52.004;5.908;2022-11-20T13:22:03;26.13;;;17.77;;
42036;SDS011;30340;52.004;5.908;2022-11-20T13:24:30;35.58;;;23.83;;
42036;SDS011;30340;52.004;5.908;2022-11-20T13:27:46;32.30;;;22.70;;
42036;SDS011;30340;52.004;5.908;2022-11-20T13:29:47;27.80;;;19.73;;
42036;SDS011;30340;52.004;5.908;2022-11-20T13:32:25;28.38;;;19.95;;
42036;SDS011;30340;52.004;5.908;2022-11-20T13:34:58;27.05;;;18.95;;
42036;SDS011;30340;52.004;5.908;2022-11-20T13:40:04;27.55;;;19.23;;
42036;SDS011;30340;52.004;5.908;2022-11-20T13:42:46;29.70;;;20.30;;
42036;SDS011;30340;52.004;5.908;2022-11-20T13:45:23;30.25;;;20.27;;
42036;SDS011;30340;52.004;5.908;2022-11-20T13:47:51;28.60;;;19.65;;
42036;SDS011;30340;52.004;5.908;2022-11-20T13:50:18;31.77;;;21.00;;
42036;SDS011;30340;52.004;5.908;2022-11-20T13:56:30;35.25;;;23.00;;
42036;SDS011;30340;52.004;5.908;2022-11-20T13:59:09;32.53;;;20.88;;
42036;SDS011;30340;52.004;5.908;2022-11-20T14:01:55;37.35;;;24.45;;
42036;SDS011;30340;52.004;5.908;2022-11-20T14:04:28;29.02;;;20.30;;
42036;SDS011;30340;52.004;5.908;2022-11-20T14:06:58;38.47;;;24.48;;
42036;SDS011;30340;52.004;5.908;2022-11-20T14:09:28;33.72;;;22.52;;
42036;SDS011;30340;52.004;5.908;2022-11-20T14:11:55;35.78;;;23.48;;
42036;SDS011;30340;52.004;5.908;2022-11-20T14:14:21;31.58;;;21.33;;
42036;SDS011;30340;52.004;5.908;2022-11-20T14:16:48;41.38;;;27.27;;
42036;SDS011;30340;52.004;5.908;2022-11-20T14:19:36;33.97;;;22.17;;
42036;SDS011;30340;52.004;5.908;2022-11-20T14:22:22;36.30;;;24.48;;
42036;SDS011;30340;52.004;5.908;2022-11-20T14:25:00;35.88;;;24.10;;
42036;SDS011;30340;52.004;5.908;2022-11-20T14:27:28;37.22;;;23.88;;
42036;SDS011;30340;52.004;5.908;2022-11-20T14:29:57;37.72;;;24.00;;
42036;SDS011;30340;52.004;5.908;2022-11-20T14:32:27;35.88;;;23.52;;
42036;SDS011;30340;52.004;5.908;2022-11-20T14:34:55;37.70;;;25.40;;
42036;SDS011;30340;52.004;5.908;2022-11-20T14:37:27;37.20;;;24.92;;
42036;SDS011;30340;52.004;5.908;2022-11-20T14:39:58;35.95;;;24.45;;
42036;SDS011;30340;52.004;5.908;2022-11-20T14:42:27;38.13;;;24.90;;
42036;SDS011;30340;52.004;5.908;2022-11-20T14:44:59;37.10;;;24.92;;
42036;SDS011;30340;52.004;5.908;2022-11-20T14:47:28;72.38;;;50.33;;
42036;SDS011;30340;52.004;5.908;2022-11-20T14:49:55;34.92;;;23.52;;
42036;SDS011;30340;52.004;5.908;2022-11-20T14:52:24;32.78;;;22.75;;
42036;SDS011;30340;52.004;5.908;2022-11-20T14:54:55;33.33;;;22.42;;
42036;SDS011;30340;52.004;5.908;2022-11-20T14:57:34;36.78;;;24.45;;
42036;SDS011;30340;52.004;5.908;2022-11-20T15:02:38;41.72;;;26.00;;
42036;SDS011;30340;52.004;5.908;2022-11-20T15:05:07;37.13;;;25.10;;
42036;SDS011;30340;52.004;5.908;2022-11-20T15:07:35;37.95;;;24.70;;
42036;SDS011;30340;52.004;5.908;2022-11-20T15:12:37;37.70;;;24.30;;
42036;SDS011;30340;52.004;5.908;2022-11-20T15:15:06;38.13;;;25.27;;
42036;SDS011;30340;52.004;5.908;2022-11-20T15:17:36;39.67;;;26.05;;
42036;SDS011;30340;52.004;5.908;2022-11-20T15:20:05;39.10;;;25.23;;
42036;SDS011;30340;52.004;5.908;2022-11-20T15:22:39;37.45;;;26.50;;
42036;SDS011;30340;52.004;5.908;2022-11-20T15:25:12;42.33;;;26.40;;
42036;SDS011;30340;52.004;5.908;2022-11-20T15:27:42;39.47;;;25.63;;
42036;SDS011;30340;52.004;5.908;2022-11-20T15:30:12;39.70;;;26.15;;
42036;SDS011;30340;52.004;5.908;2022-11-20T15:32:39;36.40;;;24.77;;
42036;SDS011;30340;52.004;5.908;2022-11-20T15:35:05;38.75;;;25.35;;
42036;SDS011;30340;52.004;5.908;2022-11-20T15:37:31;40.90;;;28.00;;
42036;SDS011;30340;52.004;5.908;2022-11-20T15:39:57;46.88;;;29.58;;
42036;SDS011;30340;52.004;5.908;2022-11-20T15:42:22;43.60;;;28.60;;
42036;SDS011;30340;52.004;5.908;2022-11-20T15:44:48;39.15;;;26.55;;
42036;SDS011;30340;52.004;5.908;2022-11-20T15:47:13;40.35;;;27.27;;
42036;SDS011;30340;52.004;5.908;2022-11-20T15:49:39;39.92;;;27.20;;
42036;SDS011;30340;52.004;5.908;2022-11-20T15:52:04;41.35;;;26.65;;
42036;SDS011;30340;52.004;5.908;2022-11-20T15:54:30;44.08;;;29.92;;
42036;SDS011;30340;52.004;5.908;2022-11-20T15:56:55;45.53;;;29.58;;
42036;SDS011;30340;52.004;5.908;2022-11-20T15:59:21;42.40;;;27.98;;
42036;SDS011;30340;52.004;5.908;2022-11-20T16:01:46;54.58;;;30.88;;
42036;SDS011;30340;52.004;5.908;2022-11-20T16:04:13;45.97;;;29.42;;
42036;SDS011;30340;52.004;5.908;2022-11-20T16:06:40;39.83;;;25.98;;
42036;SDS011;30340;52.004;5.908;2022-11-20T16:09:06;39.97;;;26.80;;
42036;SDS011;30340;52.004;5.908;2022-11-20T16:11:32;42.47;;;27.50;;
42036;SDS011;30340;52.004;5.908;2022-11-20T16:14:01;37.53;;;25.10;;
42036;SDS011;30340;52.004;5.908;2022-11-20T16:16:47;36.38;;;23.90;;
42036;SDS011;30340;52.004;5.908;2022-11-20T16:19:13;35.95;;;23.23;;